Arlington, TX

3:18 PM CST on December 02, 2016 (GMT -0600)
Rush Creek | | Change Station

Elev 650 ft 32.63 °N, 97.14 °W | Updated 2 seconds ago

Clear
Clear
61.8 °F
Feels Like 61.8 °F
N
3.5
Wind Variable Wind from SE
Gusts 3.5 mph

Today
High -- | Low -- °F
--% Chance of Precip.
Yesterday
High -- | Low -- °F
Precip. -- in
Pressure 30.05 in
Visibility 10.0 miles
Clouds Clear
Dew Point 41 °F
Humidity 47%
Rainfall 0.00 in
Snow Depth Not available.
7:13 AM 5:22 PM
Waxing Crescent, 10% visible
METAR KGKY 022053Z 08009KT 10SM CLR 17/02 A3005 RMK AO2 PRESFR SLP174 T01670017 58026
Pressure 30.05 in
Visibility 10.0 miles
Clouds Clear
Dew Point 41 °F
Humidity 47%
Rainfall 0.00 in
Snow Depth Not available.
7:13 AM 5:22 PM
Waxing Crescent, 10% visible
METAR KGKY 022053Z 08009KT 10SM CLR 17/02 A3005 RMK AO2 PRESFR SLP174 T01670017 58026

10-Day Weather Forecast

Almanac

Astronomy

Dec. 02, 2016 Rise Set
Actual Time
Civil Twilight
Nautical Twilight
Astronomical Twilight
Moon
Length of Visible Light
Length of Day
Tomorrow will be .
, % of the Moon is Illuminated

Today's Extremes

State Highs State Lows

Community

WunderPhotos

Upload Photos

1,955,369 photos uploaded!

WunderBlog® & News

Nearby

Air Quality

  Air Quality AQ Index Pollutant
Not available.

Snow Depth

Station Depth Elevation

Earthquake Activity

City Distance Mag. Time & Date
Minimum magnitude displayed is 2.5.

Coastal Water Temperatures

Place Temperature

Stations

Nearby Weather Stations

Station Location Temp. Windchill Dew Point Humidity Wind Precip. Elev Updated Type
                   

Watches & Warnings

There are currently no watches in effect.